Time;durP1;ratioP1;P1;durP2;ratioP2;P2;SDS_P1;SDS_P2;PMS_P1;PMS_P2;Temp;Humidity;BMP_temperature;BMP_pressure;BME280_temperature;BME280_humidity;BME280_pressure;Samples;Min_cycle;Max_cycle;Signal;HPM_P1;HPM_P2
2021/09/16 00:00:26;;;;;;;13.00;6.82;;;;;;;20.61;73.64;97826.38;5117658;28;20019;-89
2021/09/16 00:02:51;;;;;;;9.10;7.03;;;;;;;20.64;73.72;97831.22;5107411;28;20116;-89
2021/09/16 00:05:17;;;;;;;14.10;9.00;;;;;;;20.60;73.51;97838.66;5082411;28;20028;-88
2021/09/16 00:07:44;;;;;;;10.48;6.63;;;;;;;20.61;73.34;97838.28;5117808;28;20486;-88
2021/09/16 00:10:11;;;;;;;9.68;6.50;;;;;;;20.63;72.64;97824.84;5086907;28;20081;-85
2021/09/16 00:12:37;;;;;;;10.30;5.88;;;;;;;20.61;72.65;97827.16;5114802;28;20038;-90
2021/09/16 00:15:02;;;;;;;6.70;6.03;;;;;;;;;;5121617;28;20019;-81
2021/09/16 00:17:28;;;;;;;7.10;6.40;;;;;;;20.57;72.92;97825.50;5099449;28;20024;-83
2021/09/16 00:19:53;;;;;;;7.50;6.20;;;;;;;20.57;72.47;97819.94;5101857;28;20404;-83
2021/09/16 00:22:19;;;;;;;11.93;6.63;;;;;;;20.66;71.97;97823.31;5127744;28;20035;-82
2021/09/16 00:24:44;;;;;;;9.35;6.13;;;;;;;20.69;71.86;97825.34;5122901;28;20032;-86
2021/09/16 00:27:09;;;;;;;6.65;6.00;;;;;;;20.71;71.35;97825.78;5126930;28;20028;-81
2021/09/16 00:29:35;;;;;;;7.45;6.65;;;;;;;20.70;71.23;97824.19;5119908;28;20070;-83
2021/09/16 00:32:00;;;;;;;7.30;6.10;;;;;;;20.74;71.30;97838.97;5097788;28;20173;-82
2021/09/16 00:34:27;;;;;;;9.48;6.50;;;;;;;20.76;70.94;97825.53;5100687;28;20424;-85
2021/09/16 00:36:54;;;;;;;7.85;5.65;;;;;;;20.79;70.89;97827.56;5119721;28;20028;-86
2021/09/16 00:39:19;;;;;;;7.13;6.38;;;;;;;20.80;70.54;97826.38;5118959;28;20057;-82
2021/09/16 00:41:44;;;;;;;7.15;6.25;;;;;;;20.76;70.87;97817.19;5110320;28;20069;-89
2021/09/16 00:44:10;;;;;;;8.10;6.15;;;;;;;20.83;70.75;97823.66;5100205;28;20028;-85
2021/09/16 00:46:36;;;;;;;10.90;6.78;;;;;;;20.79;70.83;97817.25;5119026;28;20051;-86
2021/09/16 00:49:04;;;;;;;10.52;7.00;;;;;;;20.80;70.71;97812.47;5100070;28;20023;-88
2021/09/16 00:51:30;;;;;;;9.95;5.72;;;;;;;20.75;71.30;97815.56;5103657;28;20032;-88
2021/09/16 00:53:58;;;;;;;8.65;7.30;;;;;;;20.72;71.44;97824.63;5118763;28;20020;-88
2021/09/16 00:56:25;;;;;;;8.50;7.60;;;;;;;20.68;71.87;97816.22;5134989;28;20087;-91
2021/09/16 00:58:52;;;;;;;8.02;6.75;;;;;;;20.66;72.31;97817.75;5135475;28;20493;-86
2021/09/16 01:01:18;;;;;;;6.72;6.13;;;;;;;20.68;71.98;97807.88;5114384;28;20020;-82
2021/09/16 01:03:44;;;;;;;7.72;6.32;;;;;;;20.67;72.26;97802.69;5138556;27;20072;-92
2021/09/16 01:06:11;;;;;;;9.13;6.38;;;;;;;20.63;72.68;97810.13;5122672;27;20027;-87
2021/09/16 01:08:37;;;;;;;7.45;6.13;;;;;;;20.54;73.05;97799.25;5137815;27;20019;-88
2021/09/16 01:11:03;;;;;;;9.15;6.57;;;;;;;20.48;73.57;97806.25;5120488;27;20540;-86
2021/09/16 01:13:28;;;;;;;9.15;6.82;;;;;;;20.40;73.61;97798.91;5120024;27;20030;-88
2021/09/16 01:15:57;;;;;;;7.00;6.35;;;;;;;20.50;73.55;97805.88;5140373;27;20030;-91
2021/09/16 01:18:23;;;;;;;9.02;6.82;;;;;;;20.46;73.88;97810.53;5130729;27;20053;-83
2021/09/16 01:20:48;;;;;;;8.50;6.53;;;;;;;20.33;74.65;97814.63;5142298;27;20035;-86
2021/09/16 01:23:14;;;;;;;7.63;6.20;;;;;;;20.31;74.44;97812.22;5120287;27;20434;-81
2021/09/16 01:25:39;;;;;;;7.43;6.72;;;;;;;20.25;74.87;97808.06;5134926;27;20026;-87
2021/09/16 01:28:05;;;;;;;12.27;6.82;;;;;;;20.07;75.70;97812.41;5135096;27;20023;-79
2021/09/16 01:30:31;;;;;;;8.05;7.28;;;;;;;20.00;75.80;97804.72;5135117;27;20125;-85
2021/09/16 01:32:58;;;;;;;11.85;8.35;;;;;;;19.90;76.26;97813.59;5121788;27;20091;-84
2021/09/16 01:35:25;;;;;;;7.78;6.75;;;;;;;19.81;76.90;97812.16;5122566;27;20033;-87
2021/09/16 01:37:50;;;;;;;8.50;7.55;;;;;;;19.78;77.29;97813.69;5137892;27;20068;-85
2021/09/16 01:40:16;;;;;;;9.65;7.45;;;;;;;19.67;77.77;97807.84;5144527;27;20027;-90
2021/09/16 01:42:44;;;;;;;13.82;6.85;;;;;;;19.71;77.82;97799.63;5139159;27;20039;-82
2021/09/16 01:45:22;;;;;;;7.80;6.00;;;;;;;19.71;77.72;97794.88;5137261;27;20038;-82
2021/09/16 01:47:49;;;;;;;10.23;7.22;;;;;;;19.76;77.68;97797.41;5141481;27;20122;-84
2021/09/16 01:50:17;;;;;;;9.07;7.50;;;;;;;19.60;78.07;97779.13;5137019;27;20507;-84
2021/09/16 01:52:43;;;;;;;8.38;6.35;;;;;;;19.60;78.76;97793.00;5121755;27;20069;-79
2021/09/16 01:55:09;;;;;;;12.18;7.75;;;;;;;19.53;79.29;97788.09;5145341;27;20011;-80
2021/09/16 01:57:34;;;;;;;11.38;8.15;;;;;;;19.53;78.93;97785.31;5147606;27;20023;-83
2021/09/16 02:00:00;;;;;;;9.25;7.03;;;;;;;19.54;78.10;97783.34;5124763;27;20027;-85
2021/09/16 02:02:26;;;;;;;10.10;8.05;;;;;;;19.41;78.67;97773.50;5090640;28;20039;-82
2021/09/16 02:04:51;;;;;;;8.13;7.30;;;;;;;19.40;78.45;97772.69;5114164;28;20034;-82
2021/09/16 02:07:17;;;;;;;8.75;7.90;;;;;;;19.53;77.52;97788.09;5103187;28;20525;-85
2021/09/16 02:09:42;;;;;;;9.27;7.28;;;;;;;19.45;78.52;97786.28;5127815;27;20024;-83
2021/09/16 02:12:08;;;;;;;8.05;6.60;;;;;;;19.48;78.39;97788.38;5094666;28;20039;-83
2021/09/16 02:14:34;;;;;;;12.13;7.72;;;;;;;19.45;78.36;97785.50;5096142;28;20032;-85
2021/09/16 02:16:59;;;;;;;8.55;6.93;;;;;;;19.52;77.28;97786.47;5098115;28;20107;-83
2021/09/16 02:19:24;;;;;;;8.48;7.25;;;;;;;19.50;77.34;97788.00;5095383;28;20534;-83
2021/09/16 02:21:50;;;;;;;7.07;6.38;;;;;;;19.47;77.48;97789.53;5112168;28;20077;-88
2021/09/16 02:24:16;;;;;;;7.78;6.28;;;;;;;19.49;76.55;97791.91;5096213;28;20024;-86
2021/09/16 02:26:41;;;;;;;6.75;6.05;;;;;;;19.50;76.35;97788.00;5095851;28;20024;-83
2021/09/16 02:29:07;;;;;;;7.72;6.93;;;;;;;19.40;76.60;97788.50;5095905;28;20530;-87
2021/09/16 02:31:32;;;;;;;7.65;6.72;;;;;;;19.35;76.52;97792.34;5096163;28;20127;-86
2021/09/16 02:33:57;;;;;;;9.00;6.53;;;;;;;19.27;76.85;97788.56;5096890;28;20028;-88
2021/09/16 02:36:23;;;;;;;7.88;6.35;;;;;;;19.14;77.46;97781.47;5097002;28;20051;-83
2021/09/16 02:38:48;;;;;;;9.55;6.97;;;;;;;19.17;77.95;97785.53;5096261;28;20145;-85
2021/09/16 02:41:14;;;;;;;8.98;6.22;;;;;;;19.10;78.25;97783.38;5096691;28;20465;-85
2021/09/16 02:43:40;;;;;;;8.00;6.47;;;;;;;19.06;78.48;97785.22;5095852;28;20024;-85
2021/09/16 02:46:05;;;;;;;7.80;6.82;;;;;;;19.01;79.08;97785.50;5100033;28;20051;-84
2021/09/16 02:48:30;;;;;;;10.93;7.68;;;;;;;19.04;79.16;97787.56;5094953;28;20028;-83
2021/09/16 02:50:56;;;;;;;11.98;7.00;;;;;;;18.86;79.97;97779.91;5096982;28;20020;-83
2021/09/16 02:53:22;;;;;;;8.63;6.15;;;;;;;18.80;80.44;97784.88;5095607;28;20480;-88
2021/09/16 02:55:47;;;;;;;7.80;7.00;;;;;;;18.88;80.42;97783.94;5094549;28;20032;-80
2021/09/16 02:58:13;;;;;;;12.05;7.25;;;;;;;18.83;80.65;97781.41;5094171;28;20028;-84
2021/09/16 03:00:38;;;;;;;11.10;6.53;;;;;;;18.86;81.05;97783.47;5096233;28;20023;-86
2021/09/16 03:03:07;;;;;;;9.10;7.43;;;;;;;18.82;81.48;97784.53;5106034;28;20135;-84
2021/09/16 03:05:33;;;;;;;8.93;6.88;;;;;;;18.81;81.34;97771.84;5103927;28;20106;-81
2021/09/16 03:07:59;;;;;;;7.60;6.80;;;;;;;18.64;82.40;97779.28;5118323;28;20024;-85
2021/09/16 03:10:25;;;;;;;7.72;6.93;;;;;;;18.60;82.69;97780.34;5121413;28;20111;-86
2021/09/16 03:12:50;;;;;;;7.47;6.75;;;;;;;18.60;82.99;97777.59;5120013;28;20047;-89
2021/09/16 03:15:16;;;;;;;10.00;7.40;;;;;;;18.59;83.14;97775.97;5102481;28;20036;-83
2021/09/16 03:17:41;;;;;;;8.48;7.38;;;;;;;18.50;83.42;97780.84;5119600;28;20020;-83
2021/09/16 03:20:08;;;;;;;8.75;7.85;;;;;;;18.52;83.93;97786.84;5120839;28;20030;-85
2021/09/16 03:22:33;;;;;;;8.52;7.68;;;;;;;18.54;83.56;97785.31;5138207;28;20024;-84
2021/09/16 03:24:59;;;;;;;8.98;7.20;;;;;;;18.50;83.53;97784.44;5104077;28;20529;-85
2021/09/16 03:27:24;;;;;;;13.73;7.78;;;;;;;18.49;83.35;97779.19;5127499;27;20024;-83
2021/09/16 03:29:49;;;;;;;9.32;7.38;;;;;;;18.64;82.93;97792.31;5101591;28;20657;-89
2021/09/16 03:32:15;;;;;;;8.65;6.95;;;;;;;18.70;83.05;97799.25;5124807;28;20447;-90
2021/09/16 03:34:40;;;;;;;8.18;6.68;;;;;;;18.54;83.60;97790.84;5147855;28;20022;-89
2021/09/16 03:37:06;;;;;;;13.07;7.65;;;;;;;18.44;83.93;97791.34;5143034;28;20023;-82
2021/09/16 03:39:31;;;;;;;11.05;7.28;;;;;;;18.49;83.94;97790.28;5141875;28;20091;-90
2021/09/16 03:41:56;;;;;;;10.25;7.20;;;;;;;18.37;84.62;97791.13;5140939;28;20388;-88
2021/09/16 03:44:22;;;;;;;11.13;7.57;;;;;;;18.46;84.21;97793.75;5142418;28;20055;-87
2021/09/16 03:46:47;;;;;;;10.35;7.43;;;;;;;18.35;84.85;97789.88;5145275;27;20091;-88
2021/09/16 03:49:13;;;;;;;11.93;7.97;;;;;;;18.13;86.10;97775.38;5146241;27;20450;-83
2021/09/16 03:51:38;;;;;;;11.43;8.52;;;;;;;17.96;87.87;97777.56;5150522;28;20038;-81
2021/09/16 03:54:04;;;;;;;14.60;7.90;;;;;;;17.96;88.03;97772.84;5152410;27;20016;-80
2021/09/16 03:56:29;;;;;;;12.00;8.77;;;;;;;18.03;87.80;97775.84;5155327;28;20023;-84
2021/09/16 03:58:55;;;;;;;17.90;11.80;;;;;;;17.93;88.91;97765.25;5155960;28;20020;-85
2021/09/16 04:01:20;;;;;;;19.38;10.65;;;;;;;18.10;88.44;97787.16;5154707;27;20015;-84
2021/09/16 04:03:46;;;;;;;12.65;9.18;;;;;;;18.14;88.96;97782.50;5133380;28;20040;-82
2021/09/16 04:06:11;;;;;;;11.88;8.98;;;;;;;18.15;88.63;97767.53;5126861;28;20028;-84
2021/09/16 04:08:37;;;;;;;14.73;10.63;;;;;;;18.13;89.88;97792.00;5127062;28;20023;-84
2021/09/16 04:11:02;;;;;;;13.88;10.50;;;;;;;18.01;90.30;97780.91;5126975;28;20039;-80
2021/09/16 04:13:28;;;;;;;9.30;8.25;;;;;;;17.92;91.05;97784.94;5147646;28;20045;-86
2021/09/16 04:15:53;;;;;;;14.18;9.05;;;;;;;17.89;91.02;97771.81;5120337;28;20417;-81
2021/09/16 04:18:19;;;;;;;16.35;9.68;;;;;;;17.77;92.08;97778.16;5112741;28;20110;-81
2021/09/16 04:20:44;;;;;;;11.93;9.07;;;;;;;17.97;90.84;97780.00;5132001;28;20487;-82
2021/09/16 04:23:10;;;;;;;11.82;9.43;;;;;;;18.12;89.90;97782.06;5112594;28;20142;-85
2021/09/16 04:25:35;;;;;;;15.27;9.85;;;;;;;17.93;90.89;97765.25;5112808;28;20036;-76
2021/09/16 04:28:00;;;;;;;11.13;9.10;;;;;;;17.81;91.72;97767.22;5114019;28;20036;-76
2021/09/16 04:30:26;;;;;;;11.43;8.38;;;;;;;17.82;92.03;97779.91;5095890;28;20023;-75
2021/09/16 04:32:51;;;;;;;11.32;10.10;;;;;;;18.02;91.12;97782.53;5095907;28;20040;-76
2021/09/16 04:35:17;;;;;;;12.95;9.10;;;;;;;18.00;91.38;97778.50;5095748;28;20119;-75
2021/09/16 04:37:42;;;;;;;9.77;8.63;;;;;;;18.05;91.00;97784.59;5095534;28;20058;-76
2021/09/16 04:40:08;;;;;;;8.50;7.60;;;;;;;18.02;91.05;97779.75;5096224;28;20027;-79
2021/09/16 04:42:34;;;;;;;13.65;9.80;;;;;;;17.95;91.68;97792.59;5115365;28;20043;-82
2021/09/16 04:44:59;;;;;;;15.18;9.93;;;;;;;18.02;91.16;97784.50;5115232;28;20055;-79
2021/09/16 04:47:25;;;;;;;13.10;9.60;;;;;;;17.90;92.00;97788.09;5127523;27;20014;-76
2021/09/16 04:49:50;;;;;;;9.43;8.40;;;;;;;18.03;91.27;97798.00;5123568;28;20020;-76
2021/09/16 04:52:16;;;;;;;11.32;9.32;;;;;;;18.03;91.25;97798.00;5141151;28;20007;-76
2021/09/16 04:54:42;;;;;;;10.65;8.57;;;;;;;18.06;91.02;97805.59;5141058;28;20004;-75
2021/09/16 04:57:08;;;;;;;10.52;9.10;;;;;;;18.08;90.79;97811.59;5116724;28;20114;-84
2021/09/16 04:59:34;;;;;;;14.82;9.35;;;;;;;18.03;91.74;97808.25;5097854;28;20046;-79
2021/09/16 05:01:59;;;;;;;13.57;9.10;;;;;;;18.07;91.46;97800.88;5099771;27;20023;-77
2021/09/16 05:04:25;;;;;;;15.23;10.57;;;;;;;18.16;90.65;97796.84;5134294;27;20061;-76
2021/09/16 05:06:50;;;;;;;12.38;8.93;;;;;;;18.41;89.19;97803.13;5134448;27;20403;-76
2021/09/16 05:09:15;;;;;;;12.10;9.73;;;;;;;18.48;88.79;97799.75;5133694;27;20015;-76
2021/09/16 05:11:42;;;;;;;14.05;9.95;;;;;;;18.43;89.33;97811.88;5115136;27;20031;-78
2021/09/16 05:14:08;;;;;;;14.15;10.40;;;;;;;18.43;88.53;97800.81;5115366;27;20151;-74
2021/09/16 05:16:34;;;;;;;16.90;9.73;;;;;;;18.54;88.13;97798.38;5133997;27;20644;-74
2021/09/16 05:19:00;;;;;;;16.63;10.25;;;;;;;18.60;87.84;97810.84;5134604;27;20054;-78
2021/09/16 05:21:25;;;;;;;16.50;11.48;;;;;;;18.62;87.92;97819.59;5116160;27;20028;-76
2021/09/16 05:23:52;;;;;;;14.73;9.52;;;;;;;18.72;87.50;97824.66;5134764;27;20046;-76
2021/09/16 05:26:18;;;;;;;11.20;10.00;;;;;;;18.78;86.72;97828.78;5134530;27;20046;-80
2021/09/16 05:28:44;;;;;;;14.27;10.10;;;;;;;18.88;86.38;97827.47;5138324;27;20035;-81
2021/09/16 05:31:11;;;;;;;15.57;9.98;;;;;;;18.83;86.55;97836.84;5137314;27;20035;-83
2021/09/16 05:33:36;;;;;;;12.88;9.52;;;;;;;18.91;85.74;97835.09;5116192;27;20031;-79
2021/09/16 05:36:03;;;;;;;16.13;10.73;;;;;;;18.75;86.36;97829.50;5113475;27;20023;-82
2021/09/16 05:38:29;;;;;;;13.45;10.60;;;;;;;18.78;86.40;97844.59;5113974;27;20088;-76
2021/09/16 05:40:54;;;;;;;18.13;11.13;;;;;;;18.66;87.24;97842.69;5134184;27;20024;-82
2021/09/16 05:43:20;;;;;;;15.60;10.95;;;;;;;18.51;88.08;97854.50;5136412;27;20023;-78
2021/09/16 05:45:46;;;;;;;17.67;11.80;;;;;;;18.46;88.76;97854.69;5137619;27;20092;-75
2021/09/16 05:48:12;;;;;;;27.38;11.68;;;;;;;18.56;88.53;97852.28;5122187;27;20043;-75
2021/09/16 05:50:37;;;;;;;22.75;10.32;;;;;;;18.65;87.91;97846.59;5119560;27;20027;-75
2021/09/16 05:53:03;;;;;;;14.70;10.52;;;;;;;18.78;86.95;97850.16;5114593;27;20122;-73
2021/09/16 05:55:29;;;;;;;15.90;11.80;;;;;;;18.73;87.14;97848.44;5131328;27;20035;-75
2021/09/16 05:57:55;;;;;;;20.60;12.38;;;;;;;18.92;86.03;97848.59;5132423;27;20077;-75
2021/09/16 06:00:23;;;;;;;17.05;11.88;;;;;;;19.01;85.65;97849.28;5132653;27;20341;-75
2021/09/16 06:02:48;;;;;;;15.20;11.18;;;;;;;18.89;86.04;97849.28;5107222;28;20056;-75
2021/09/16 06:05:13;;;;;;;17.58;11.65;;;;;;;19.27;84.12;97846.00;5102134;27;20028;-74
2021/09/16 06:07:39;;;;;;;24.30;12.18;;;;;;;19.44;83.21;97840.19;5123790;27;20024;-75
2021/09/16 06:10:05;;;;;;;24.88;13.43;;;;;;;19.65;81.68;97839.91;5104220;28;20027;-75
2021/09/16 06:12:31;;;;;;;26.08;12.70;;;;;;;19.67;80.84;97838.38;5102674;27;20023;-75
2021/09/16 06:14:58;;;;;;;12.43;10.98;;;;;;;19.52;81.33;97830.88;5112939;27;20031;-75
2021/09/16 06:17:26;;;;;;;19.73;11.18;;;;;;;19.62;80.62;97832.31;5090303;28;20053;-74
2021/09/16 06:19:51;;;;;;;23.25;10.43;;;;;;;19.88;79.48;97840.91;5095553;28;20027;-74
2021/09/16 06:22:17;;;;;;;19.67;10.38;;;;;;;20.18;78.98;97841.22;5113924;27;20072;-78
2021/09/16 06:24:43;;;;;;;27.73;12.55;;;;;;;20.33;77.99;97847.97;5114792;27;20019;-75
2021/09/16 06:27:08;;;;;;;27.58;14.13;;;;;;;20.53;76.40;97846.84;5117045;27;20063;-75
2021/09/16 06:29:34;;;;;;;16.73;12.05;;;;;;;20.55;76.37;97850.84;5127998;27;20031;-75
2021/09/16 06:31:59;;;;;;;18.67;11.20;;;;;;;20.93;74.17;97846.50;5123883;27;20489;-83
2021/09/16 06:34:25;;;;;;;18.20;10.40;;;;;;;21.14;74.22;97845.03;5119889;27;20075;-76
2021/09/16 06:36:51;;;;;;;18.73;10.85;;;;;;;21.50;73.12;97851.25;5099619;28;20032;-80
2021/09/16 06:39:16;;;;;;;18.98;10.50;;;;;;;21.74;75.95;97854.50;5100329;28;20028;-80
2021/09/16 06:41:45;;;;;;;22.15;9.52;;;;;;;21.84;72.99;97839.13;5102059;28;20043;-77
2021/09/16 06:44:10;;;;;;;18.65;12.18;;;;;;;21.53;74.17;97839.38;5100597;28;20089;-78
2021/09/16 06:46:36;;;;;;;15.50;9.90;;;;;;;21.83;70.57;97831.97;5095793;28;20480;-80
2021/09/16 06:49:01;;;;;;;17.90;10.45;;;;;;;21.74;72.02;97842.56;5112890;27;20027;-78
2021/09/16 06:51:27;;;;;;;13.48;10.02;;;;;;;21.85;72.13;97833.22;5115421;27;20403;-81
2021/09/16 06:53:56;;;;;;;15.88;9.10;;;;;;;21.44;73.35;97841.59;5117722;27;20029;-83
2021/09/16 06:56:21;;;;;;;17.23;10.40;;;;;;;21.29;74.54;97838.56;5075618;28;20016;-82
2021/09/16 06:58:47;;;;;;;15.57;10.02;;;;;;;21.28;75.73;97834.16;5113350;27;20499;-82
2021/09/16 07:01:12;;;;;;;12.00;9.52;;;;;;;21.49;73.61;97827.41;5099975;28;20089;-80
2021/09/16 07:03:38;;;;;;;19.98;9.73;;;;;;;21.82;74.44;97825.59;5121043;27;20453;-78
2021/09/16 07:06:03;;;;;;;19.05;11.32;;;;;;;21.79;71.97;97820.78;5123524;27;20417;-79
2021/09/16 07:08:29;;;;;;;21.13;12.45;;;;;;;22.12;69.93;97828.50;5123838;27;20395;-79
2021/09/16 07:10:54;;;;;;;14.18;10.50;;;;;;;22.74;69.72;97834.63;5142118;27;20529;-80
2021/09/16 07:13:19;;;;;;;15.60;9.88;;;;;;;23.17;66.62;97824.81;5132720;27;20022;-78
2021/09/16 07:15:45;;;;;;;14.35;9.55;;;;;;;23.78;65.33;97818.66;5140316;27;20015;-79
2021/09/16 07:18:10;;;;;;;15.80;9.35;;;;;;;23.94;63.17;97816.41;5132106;27;20049;-79
2021/09/16 07:20:36;;;;;;;19.73;9.75;;;;;;;23.93;64.42;97809.25;5143177;27;20399;-80
2021/09/16 07:23:02;;;;;;;20.85;8.75;;;;;;;23.57;63.87;97801.72;5150358;27;20902;-80
2021/09/16 07:25:30;;;;;;;16.40;10.20;;;;;;;23.80;63.49;97805.13;5133459;27;20014;-80
2021/09/16 07:27:56;;;;;;;17.65;8.45;;;;;;;24.16;61.27;97823.81;5124473;28;20019;-80
2021/09/16 07:30:22;;;;;;;23.00;9.23;;;;;;;25.70;57.49;97853.03;5128114;28;20023;-80
2021/09/16 07:32:47;;;;;;;17.58;8.48;;;;;;;26.29;55.06;97843.06;5111785;28;20502;-81
2021/09/16 07:35:13;;;;;;;17.02;8.45;;;;;;;24.61;58.12;97841.31;5112172;28;20027;-79
2021/09/16 07:37:39;;;;;;;13.30;8.27;;;;;;;24.10;62.25;97839.31;5112658;28;20515;-79
2021/09/16 07:40:05;;;;;;;18.13;10.43;;;;;;;23.82;62.30;97847.47;5114863;28;20042;-78
2021/09/16 07:42:30;;;;;;;12.07;9.57;;;;;;;23.83;62.76;97837.91;5115397;28;20026;-81
2021/09/16 07:44:56;;;;;;;20.92;10.27;;;;;;;24.21;65.22;97843.06;5115729;28;20032;-84
2021/09/16 07:47:21;;;;;;;20.30;9.85;;;;;;;25.15;58.66;97852.44;5136734;27;20456;-81
2021/09/16 07:49:47;;;;;;;16.33;9.85;;;;;;;25.55;57.23;97857.81;5136834;28;20019;-83
2021/09/16 07:52:13;;;;;;;12.63;7.80;;;;;;;26.17;55.72;97857.50;5115343;28;20110;-80
2021/09/16 07:54:39;;;;;;;14.18;7.65;;;;;;;26.13;56.10;97862.28;5132962;28;20422;-81
2021/09/16 07:57:05;;;;;;;13.13;7.10;;;;;;;25.54;59.40;97870.19;5133047;28;20030;-80
2021/09/16 07:59:31;;;;;;;19.23;8.65;;;;;;;25.50;57.95;97858.19;5116385;27;20094;-82
2021/09/16 08:01:56;;;;;;;12.85;7.60;;;;;;;25.64;57.73;97857.41;5101744;27;20028;-80
2021/09/16 08:04:22;;;;;;;10.23;7.20;;;;;;;26.26;57.59;97859.91;5123456;27;20053;-79
2021/09/16 08:06:47;;;;;;;17.95;7.65;;;;;;;26.36;57.79;97862.72;5114280;27;20097;-77
2021/09/16 08:09:13;;;;;;;15.75;7.57;;;;;;;26.75;56.22;97865.47;5115513;27;20031;-77
2021/09/16 08:11:39;;;;;;;16.63;7.75;;;;;;;26.36;56.10;97859.09;5122510;27;20027;-78
2021/09/16 08:14:08;;;;;;;16.50;7.07;;;;;;;26.35;57.81;97863.91;5099964;28;20016;-75
2021/09/16 08:16:34;;;;;;;23.98;7.50;;;;;;;26.06;59.41;97873.50;5107525;28;20043;-81
2021/09/16 08:19:03;;;;;;;12.25;6.53;;;;;;;26.35;59.78;97863.09;5108722;27;20494;-82
2021/09/16 08:21:28;;;;;;;16.42;6.47;;;;;;;26.68;57.25;97867.50;5115122;27;20020;-83
2021/09/16 08:23:54;;;;;;;12.73;6.53;;;;;;;26.16;59.04;97869.91;5119471;27;20060;-77
2021/09/16 08:26:20;;;;;;;12.10;6.40;;;;;;;26.21;58.81;97863.94;5118862;27;20391;-79
2021/09/16 08:28:45;;;;;;;15.60;5.43;;;;;;;26.93;57.09;97874.69;5117883;27;20054;-80
2021/09/16 08:31:11;;;;;;;13.68;5.72;;;;;;;26.97;56.90;97877.50;5115679;27;20034;-77
2021/09/16 08:33:37;;;;;;;13.10;6.50;;;;;;;26.62;58.32;97872.72;5116984;27;20126;-80
2021/09/16 08:36:03;;;;;;;14.73;6.63;;;;;;;26.08;59.61;97877.53;5116205;27;20066;-79
2021/09/16 08:38:29;;;;;;;19.08;6.97;;;;;;;26.02;60.24;97875.50;5135139;27;20034;-79
2021/09/16 08:40:54;;;;;;;14.05;6.22;;;;;;;26.05;60.17;97877.50;5135879;27;20027;-81
2021/09/16 08:43:27;;;;;;;15.55;6.43;;;;;;;25.76;61.41;97867.44;5133505;27;20019;-80
2021/09/16 08:45:52;;;;;;;14.95;7.00;;;;;;;25.94;61.35;97871.06;5093852;28;20027;-83
2021/09/16 08:48:18;;;;;;;16.80;6.80;;;;;;;26.06;59.92;97876.31;5139157;27;20463;-84
2021/09/16 08:50:43;;;;;;;13.15;6.18;;;;;;;26.39;60.20;97878.75;5145816;27;20027;-80
2021/09/16 08:53:12;;;;;;;16.25;6.18;;;;;;;26.28;58.52;97866.72;5124763;27;20038;-81
2021/09/16 08:55:38;;;;;;;16.42;5.82;;;;;;;26.71;57.62;97869.50;5136436;27;20027;-82
2021/09/16 08:58:03;;;;;;;17.63;6.10;;;;;;;26.66;59.02;97876.31;5112976;27;20046;-82
2021/09/16 09:00:31;;;;;;;10.48;5.47;;;;;;;26.41;59.12;97870.72;5123519;27;20016;-83
2021/09/16 09:02:58;;;;;;;12.40;6.05;;;;;;;26.14;59.42;97868.69;5129633;27;20073;-81
2021/09/16 09:05:26;;;;;;;15.82;6.68;;;;;;;25.85;59.55;97881.88;5115818;27;20073;-79
2021/09/16 09:07:55;;;;;;;16.10;7.38;;;;;;;25.67;61.77;97875.44;5136646;27;20034;-83
2021/09/16 09:10:59;;;;;;;15.65;6.50;;;;;;;25.42;62.59;97866.94;5118736;27;20468;-81
2021/09/16 09:13:27;;;;;;;27.67;6.95;;;;;;;25.20;61.32;97866.06;5123828;27;20027;-81
2021/09/16 09:16:05;;;;;;;13.77;6.50;;;;;;;25.31;60.93;97869.69;5133035;27;20047;-80
2021/09/16 09:18:46;;;;;;;14.52;6.20;;;;;;;25.15;61.33;97866.44;5111206;27;20087;-81
2021/09/16 09:21:13;;;;;;;22.73;5.60;;;;;;;25.13;61.35;97868.00;5117737;27;20019;-80
2021/09/16 09:23:59;;;;;;;13.07;5.38;;;;;;;25.67;59.18;97864.22;5118727;27;20027;-80
2021/09/16 09:26:30;;;;;;;17.55;6.20;;;;;;;26.34;56.99;97867.94;5108371;27;20031;-80
2021/09/16 09:29:12;;;;;;;19.98;5.13;;;;;;;26.61;57.63;97863.50;5127795;27;20019;-80
2021/09/16 09:31:53;;;;;;;19.90;6.82;;;;;;;26.35;56.61;97858.31;5122525;27;20535;-78
2021/09/16 09:34:38;;;;;;;16.83;5.63;;;;;;;26.67;55.89;97877.91;5103425;27;20035;-79
2021/09/16 09:37:15;;;;;;;17.15;5.80;;;;;;;26.53;56.48;97863.91;5098343;27;20491;-78
2021/09/16 09:39:43;;;;;;;13.13;6.57;;;;;;;26.52;56.89;97857.50;5118143;27;20027;-79
2021/09/16 09:42:24;;;;;;;14.27;5.90;;;;;;;26.31;56.54;97851.91;5126424;27;20015;-77
2021/09/16 09:45:05;;;;;;;14.05;6.10;;;;;;;26.38;57.66;97857.50;5102705;27;20043;-76
2021/09/16 09:47:42;;;;;;;13.52;4.65;;;;;;;26.34;56.53;97839.88;5124033;27;20088;-78
2021/09/16 09:50:22;;;;;;;20.15;5.43;;;;;;;26.07;55.63;97855.47;5100860;27;20031;-79
2021/09/16 09:52:50;;;;;;;14.63;5.78;;;;;;;25.98;55.37;97850.25;5139252;27;20031;-81
2021/09/16 09:55:18;;;;;;;15.18;5.30;;;;;;;25.83;55.50;97842.25;5125248;27;20055;-81
2021/09/16 09:57:44;;;;;;;18.70;5.45;;;;;;;25.92;55.57;97851.06;5121079;27;20042;-80
2021/09/16 10:00:16;;;;;;;17.13;5.40;;;;;;;25.94;54.62;97851.44;5144302;27;20041;-82
2021/09/16 10:02:50;;;;;;;18.00;3.75;;;;;;;25.91;53.82;97855.06;5132300;27;20040;-80
2021/09/16 10:05:29;;;;;;;16.42;5.90;;;;;;;25.72;55.25;97852.66;5133622;27;20019;-78
2021/09/16 10:07:56;;;;;;;17.50;4.80;;;;;;;25.74;55.08;97864.25;5132583;27;20023;-82
2021/09/16 10:10:23;;;;;;;20.95;5.75;;;;;;;25.42;56.27;97856.53;5118606;27;20039;-85
2021/09/16 10:12:52;;;;;;;13.07;4.10;;;;;;;25.34;56.37;97868.13;5131421;27;20030;-81
2021/09/16 10:15:19;;;;;;;15.00;4.65;;;;;;;25.33;56.28;97863.69;5105312;27;20038;-84
2021/09/16 10:17:46;;;;;;;14.60;4.93;;;;;;;24.99;56.76;97872.38;5126706;27;20042;-82
2021/09/16 10:20:15;;;;;;;15.07;5.47;;;;;;;24.87;57.36;97874.69;5122598;27;20019;-84
2021/09/16 10:22:46;;;;;;;19.30;4.72;;;;;;;24.76;57.98;97871.78;5149473;27;20019;-80
2021/09/16 10:25:18;;;;;;;16.27;4.78;;;;;;;24.79;57.90;97881.41;5109880;27;20023;-83
2021/09/16 10:27:54;;;;;;;13.82;4.90;;;;;;;24.78;58.35;97880.59;5116243;28;20503;-81
2021/09/16 10:30:21;;;;;;;12.68;5.05;;;;;;;24.90;58.36;97879.50;5123377;28;20027;-84
2021/09/16 10:32:58;;;;;;;19.08;5.47;;;;;;;25.01;57.60;97885.97;5109579;27;20031;-84
2021/09/16 10:35:24;;;;;;;21.83;5.22;;;;;;;25.03;57.40;97877.97;5118640;27;20087;-82
2021/09/16 10:37:49;;;;;;;17.30;5.85;;;;;;;25.05;58.04;97883.97;5153303;27;20034;-84
2021/09/16 10:40:27;;;;;;;19.67;5.53;;;;;;;24.89;58.76;97889.09;5156963;27;20043;-82
2021/09/16 10:42:59;;;;;;;16.10;4.63;;;;;;;24.83;58.74;97890.66;5135078;27;20046;-83
2021/09/16 10:45:28;;;;;;;16.80;6.13;;;;;;;24.82;59.36;97887.06;5153441;27;20039;-82
2021/09/16 10:48:15;;;;;;;11.70;6.45;;;;;;;24.62;60.17;97880.09;5150586;27;20080;-86
2021/09/16 10:50:48;;;;;;;15.85;7.03;;;;;;;24.63;60.62;97883.69;5145458;27;20019;-86
2021/09/16 10:53:36;;;;;;;14.75;7.22;;;;;;;24.61;61.04;97888.88;5137113;27;20053;-87
2021/09/16 10:56:04;;;;;;;21.77;6.00;;;;;;;24.68;60.78;97872.94;5133272;27;20030;-80
2021/09/16 10:58:30;;;;;;;18.58;6.10;;;;;;;24.75;60.81;97888.97;5126884;27;20039;-81
2021/09/16 11:00:56;;;;;;;13.77;5.93;;;;;;;24.70;61.82;97889.34;5126936;27;20051;-82
2021/09/16 11:03:22;;;;;;;22.85;6.45;;;;;;;24.56;62.00;97892.84;5128573;27;20046;-85
2021/09/16 11:05:55;;;;;;;17.10;7.25;;;;;;;24.45;62.72;97895.56;5132694;28;20049;-84
2021/09/16 11:08:22;;;;;;;18.20;7.35;;;;;;;24.40;62.95;97887.53;5133458;28;20102;-87
2021/09/16 11:10:51;;;;;;;14.43;5.80;;;;;;;24.35;63.37;97887.88;5143709;27;20031;-79
2021/09/16 11:13:40;;;;;;;18.67;7.03;;;;;;;24.37;63.90;97910.66;5139596;27;20071;-83
2021/09/16 11:16:08;;;;;;;14.82;6.38;;;;;;;24.29;64.00;97903.44;5137189;28;20035;-81
2021/09/16 11:18:33;;;;;;;13.63;6.32;;;;;;;24.20;64.85;97900.16;5154344;27;20005;-85
2021/09/16 11:23:45;;;;;;;14.88;6.22;;;;;;;23.89;65.30;97900.63;5149135;27;20031;-80
2021/09/16 11:26:30;;;;;;;12.57;7.07;;;;;;;24.02;65.51;97895.56;5140095;28;20007;-81
2021/09/16 11:29:08;;;;;;;17.25;6.30;;;;;;;23.98;66.14;97906.69;5132796;28;20031;-83